sensor_id;sensor_type;location;lat;lon;timestamp;temperature;humidity
11812;DHT22;5963;50.184;9.162;2023-07-29T00:00:33;17.90;99.90
11812;DHT22;5963;50.184;9.162;2023-07-29T00:03:03;17.80;99.90
11812;DHT22;5963;50.184;9.162;2023-07-29T00:05:32;17.70;99.90
11812;DHT22;5963;50.184;9.162;2023-07-29T00:08:02;17.50;99.90
11812;DHT22;5963;50.184;9.162;2023-07-29T00:10:35;17.50;99.90
11812;DHT22;5963;50.184;9.162;2023-07-29T00:13:05;17.40;99.90
11812;DHT22;5963;50.184;9.162;2023-07-29T00:15:37;17.50;99.90
11812;DHT22;5963;50.184;9.162;2023-07-29T00:18:07;17.50;99.90
11812;DHT22;5963;50.184;9.162;2023-07-29T00:20:37;17.50;99.90
11812;DHT22;5963;50.184;9.162;2023-07-29T00:23:07;17.60;99.90
11812;DHT22;5963;50.184;9.162;2023-07-29T00:25:38;17.60;99.90
11812;DHT22;5963;50.184;9.162;2023-07-29T00:28:08;17.60;99.90
11812;DHT22;5963;50.184;9.162;2023-07-29T00:30:39;17.60;99.90
11812;DHT22;5963;50.184;9.162;2023-07-29T00:33:10;17.70;99.90
11812;DHT22;5963;50.184;9.162;2023-07-29T00:35:40;17.70;99.90
11812;DHT22;5963;50.184;9.162;2023-07-29T00:38:11;17.80;99.90
11812;DHT22;5963;50.184;9.162;2023-07-29T00:40:41;17.80;99.90
11812;DHT22;5963;50.184;9.162;2023-07-29T00:43:11;17.80;99.90
11812;DHT22;5963;50.184;9.162;2023-07-29T00:45:45;18.00;99.90
11812;DHT22;5963;50.184;9.162;2023-07-29T00:48:17;18.00;99.90
11812;DHT22;5963;50.184;9.162;2023-07-29T00:50:48;17.90;99.90
11812;DHT22;5963;50.184;9.162;2023-07-29T00:53:18;18.00;99.90
11812;DHT22;5963;50.184;9.162;2023-07-29T00:55:48;18.10;99.90
11812;DHT22;5963;50.184;9.162;2023-07-29T00:58:19;18.10;99.90
11812;DHT22;5963;50.184;9.162;2023-07-29T01:00:52;18.10;99.90
11812;DHT22;5963;50.184;9.162;2023-07-29T01:03:22;18.20;99.90
11812;DHT22;5963;50.184;9.162;2023-07-29T01:06:01;18.10;99.90
11812;DHT22;5963;50.184;9.162;2023-07-29T01:08:33;18.10;99.90
11812;DHT22;5963;50.184;9.162;2023-07-29T01:11:14;18.10;99.90
11812;DHT22;5963;50.184;9.162;2023-07-29T01:13:53;18.10;99.90
11812;DHT22;5963;50.184;9.162;2023-07-29T01:16:32;18.10;99.90
11812;DHT22;5963;50.184;9.162;2023-07-29T01:19:07;18.10;99.90
11812;DHT22;5963;50.184;9.162;2023-07-29T01:21:39;18.10;99.90
11812;DHT22;5963;50.184;9.162;2023-07-29T01:24:12;18.10;99.90
11812;DHT22;5963;50.184;9.162;2023-07-29T01:26:42;18.10;99.90
11812;DHT22;5963;50.184;9.162;2023-07-29T01:29:12;18.10;99.90
11812;DHT22;5963;50.184;9.162;2023-07-29T01:31:45;18.10;99.90
11812;DHT22;5963;50.184;9.162;2023-07-29T01:34:23;18.10;99.90
11812;DHT22;5963;50.184;9.162;2023-07-29T01:36:57;18.20;99.90
11812;DHT22;5963;50.184;9.162;2023-07-29T01:39:35;18.10;99.90
11812;DHT22;5963;50.184;9.162;2023-07-29T01:42:05;18.10;99.90
11812;DHT22;5963;50.184;9.162;2023-07-29T01:44:36;18.20;99.90
11812;DHT22;5963;50.184;9.162;2023-07-29T01:47:06;18.20;99.90
11812;DHT22;5963;50.184;9.162;2023-07-29T01:49:35;18.30;99.90
11812;DHT22;5963;50.184;9.162;2023-07-29T01:52:06;18.20;99.90
11812;DHT22;5963;50.184;9.162;2023-07-29T01:54:38;18.10;99.90
11812;DHT22;5963;50.184;9.162;2023-07-29T01:57:09;18.10;99.90
11812;DHT22;5963;50.184;9.162;2023-07-29T01:59:39;18.10;99.90
11812;DHT22;5963;50.184;9.162;2023-07-29T02:02:10;18.00;99.90
11812;DHT22;5963;50.184;9.162;2023-07-29T02:04:40;18.00;99.90
11812;DHT22;5963;50.184;9.162;2023-07-29T02:07:11;18.00;99.90
11812;DHT22;5963;50.184;9.162;2023-07-29T02:09:44;18.00;99.90
11812;DHT22;5963;50.184;9.162;2023-07-29T02:12:15;18.00;99.90
11812;DHT22;5963;50.184;9.162;2023-07-29T02:14:45;18.00;99.90
11812;DHT22;5963;50.184;9.162;2023-07-29T02:17:15;18.10;99.90
11812;DHT22;5963;50.184;9.162;2023-07-29T02:19:46;18.00;99.90
11812;DHT22;5963;50.184;9.162;2023-07-29T02:22:19;17.90;99.90
11812;DHT22;5963;50.184;9.162;2023-07-29T02:24:51;18.00;99.90
11812;DHT22;5963;50.184;9.162;2023-07-29T02:27:21;18.00;99.90
11812;DHT22;5963;50.184;9.162;2023-07-29T02:29:54;17.90;99.90
11812;DHT22;5963;50.184;9.162;2023-07-29T02:32:22;17.90;99.90
11812;DHT22;5963;50.184;9.162;2023-07-29T02:34:53;17.90;99.90
11812;DHT22;5963;50.184;9.162;2023-07-29T02:37:24;18.00;99.90
11812;DHT22;5963;50.184;9.162;2023-07-29T02:39:55;17.90;99.90
11812;DHT22;5963;50.184;9.162;2023-07-29T02:42:25;17.90;99.90
11812;DHT22;5963;50.184;9.162;2023-07-29T02:44:55;17.90;99.90
11812;DHT22;5963;50.184;9.162;2023-07-29T02:47:26;17.90;99.90
11812;DHT22;5963;50.184;9.162;2023-07-29T02:49:56;18.00;99.90
11812;DHT22;5963;50.184;9.162;2023-07-29T02:52:26;18.00;99.90
11812;DHT22;5963;50.184;9.162;2023-07-29T02:54:57;18.00;99.90
11812;DHT22;5963;50.184;9.162;2023-07-29T02:57:28;18.00;99.90
11812;DHT22;5963;50.184;9.162;2023-07-29T02:59:58;18.00;99.90
11812;DHT22;5963;50.184;9.162;2023-07-29T03:02:28;18.00;99.90
11812;DHT22;5963;50.184;9.162;2023-07-29T03:05:01;18.10;99.90
11812;DHT22;5963;50.184;9.162;2023-07-29T03:07:32;18.00;99.90
11812;DHT22;5963;50.184;9.162;2023-07-29T03:10:04;18.10;99.90
11812;DHT22;5963;50.184;9.162;2023-07-29T03:12:35;18.10;99.90
11812;DHT22;5963;50.184;9.162;2023-07-29T03:15:06;18.10;99.90
11812;DHT22;5963;50.184;9.162;2023-07-29T03:17:36;18.10;99.90
11812;DHT22;5963;50.184;9.162;2023-07-29T03:20:07;18.00;99.90
11812;DHT22;5963;50.184;9.162;2023-07-29T03:22:37;18.00;99.90
11812;DHT22;5963;50.184;9.162;2023-07-29T03:25:09;18.00;99.90
11812;DHT22;5963;50.184;9.162;2023-07-29T03:27:40;17.90;99.90
11812;DHT22;5963;50.184;9.162;2023-07-29T03:30:11;17.90;99.90
11812;DHT22;5963;50.184;9.162;2023-07-29T03:32:45;18.00;99.90
11812;DHT22;5963;50.184;9.162;2023-07-29T03:35:17;18.00;99.90
11812;DHT22;5963;50.184;9.162;2023-07-29T03:37:48;17.90;99.90
11812;DHT22;5963;50.184;9.162;2023-07-29T03:40:20;17.90;99.90
11812;DHT22;5963;50.184;9.162;2023-07-29T03:42:49;18.00;99.90
11812;DHT22;5963;50.184;9.162;2023-07-29T03:45:23;18.00;99.90
11812;DHT22;5963;50.184;9.162;2023-07-29T03:47:53;18.00;99.90
11812;DHT22;5963;50.184;9.162;2023-07-29T03:50:24;17.90;99.90
11812;DHT22;5963;50.184;9.162;2023-07-29T03:52:54;17.80;99.90
11812;DHT22;5963;50.184;9.162;2023-07-29T03:55:25;17.80;99.90
11812;DHT22;5963;50.184;9.162;2023-07-29T03:58:00;17.70;99.90
11812;DHT22;5963;50.184;9.162;2023-07-29T04:00:29;17.70;99.90
11812;DHT22;5963;50.184;9.162;2023-07-29T04:02:59;17.60;99.90
11812;DHT22;5963;50.184;9.162;2023-07-29T04:05:30;17.60;99.90
11812;DHT22;5963;50.184;9.162;2023-07-29T04:08:01;17.60;99.90
11812;DHT22;5963;50.184;9.162;2023-07-29T04:10:33;17.60;99.90
11812;DHT22;5963;50.184;9.162;2023-07-29T04:13:07;17.60;99.90
11812;DHT22;5963;50.184;9.162;2023-07-29T04:15:38;17.60;99.90
11812;DHT22;5963;50.184;9.162;2023-07-29T04:18:08;17.60;99.90
11812;DHT22;5963;50.184;9.162;2023-07-29T04:20:38;17.60;99.90
11812;DHT22;5963;50.184;9.162;2023-07-29T04:23:10;17.60;99.90
11812;DHT22;5963;50.184;9.162;2023-07-29T04:25:44;17.60;99.90
11812;DHT22;5963;50.184;9.162;2023-07-29T04:28:17;17.60;99.90
11812;DHT22;5963;50.184;9.162;2023-07-29T04:30:48;17.60;99.90
11812;DHT22;5963;50.184;9.162;2023-07-29T04:33:18;17.60;99.90
11812;DHT22;5963;50.184;9.162;2023-07-29T04:35:51;17.70;99.90
11812;DHT22;5963;50.184;9.162;2023-07-29T04:38:30;17.70;99.90
11812;DHT22;5963;50.184;9.162;2023-07-29T04:41:02;17.70;99.90
11812;DHT22;5963;50.184;9.162;2023-07-29T04:43:40;17.80;99.90
11812;DHT22;5963;50.184;9.162;2023-07-29T04:46:11;17.80;99.90
11812;DHT22;5963;50.184;9.162;2023-07-29T04:48:42;17.90;99.90
11812;DHT22;5963;50.184;9.162;2023-07-29T04:51:13;18.00;99.90
11812;DHT22;5963;50.184;9.162;2023-07-29T04:53:42;18.00;99.90
11812;DHT22;5963;50.184;9.162;2023-07-29T04:56:13;18.00;99.90
11812;DHT22;5963;50.184;9.162;2023-07-29T04:58:47;18.00;99.90
11812;DHT22;5963;50.184;9.162;2023-07-29T05:01:18;18.00;99.90
11812;DHT22;5963;50.184;9.162;2023-07-29T05:03:52;18.00;99.90
11812;DHT22;5963;50.184;9.162;2023-07-29T05:06:26;18.10;99.90
11812;DHT22;5963;50.184;9.162;2023-07-29T05:08:59;18.10;99.90
11812;DHT22;5963;50.184;9.162;2023-07-29T05:11:47;18.10;99.90
11812;DHT22;5963;50.184;9.162;2023-07-29T05:14:19;18.20;99.90
11812;DHT22;5963;50.184;9.162;2023-07-29T05:16:49;18.20;99.90
11812;DHT22;5963;50.184;9.162;2023-07-29T05:19:31;18.20;99.90
11812;DHT22;5963;50.184;9.162;2023-07-29T05:22:01;18.20;99.90
11812;DHT22;5963;50.184;9.162;2023-07-29T05:24:31;18.30;99.90
11812;DHT22;5963;50.184;9.162;2023-07-29T05:27:04;18.30;99.90
11812;DHT22;5963;50.184;9.162;2023-07-29T05:29:34;18.30;99.90
11812;DHT22;5963;50.184;9.162;2023-07-29T05:32:05;18.30;99.90
11812;DHT22;5963;50.184;9.162;2023-07-29T05:34:39;18.50;99.90
11812;DHT22;5963;50.184;9.162;2023-07-29T05:37:09;18.60;99.90
11812;DHT22;5963;50.184;9.162;2023-07-29T05:39:41;18.50;99.90
11812;DHT22;5963;50.184;9.162;2023-07-29T05:42:16;18.50;99.90
11812;DHT22;5963;50.184;9.162;2023-07-29T05:44:47;18.50;99.90
11812;DHT22;5963;50.184;9.162;2023-07-29T05:47:17;18.50;99.90
11812;DHT22;5963;50.184;9.162;2023-07-29T05:49:48;18.60;99.90
11812;DHT22;5963;50.184;9.162;2023-07-29T05:52:18;18.60;99.90
11812;DHT22;5963;50.184;9.162;2023-07-29T05:54:47;18.60;99.90
11812;DHT22;5963;50.184;9.162;2023-07-29T05:57:22;18.70;99.90
11812;DHT22;5963;50.184;9.162;2023-07-29T05:59:54;18.70;99.90
11812;DHT22;5963;50.184;9.162;2023-07-29T06:02:25;18.70;99.90
11812;DHT22;5963;50.184;9.162;2023-07-29T06:04:57;18.70;99.90
11812;DHT22;5963;50.184;9.162;2023-07-29T06:07:28;18.70;99.90
11812;DHT22;5963;50.184;9.162;2023-07-29T06:10:02;18.70;99.90
11812;DHT22;5963;50.184;9.162;2023-07-29T06:12:37;18.70;99.90
11812;DHT22;5963;50.184;9.162;2023-07-29T06:15:08;18.70;99.90
11812;DHT22;5963;50.184;9.162;2023-07-29T06:17:40;18.80;99.90
11812;DHT22;5963;50.184;9.162;2023-07-29T06:20:10;18.80;99.90
11812;DHT22;5963;50.184;9.162;2023-07-29T06:22:44;18.80;99.90
11812;DHT22;5963;50.184;9.162;2023-07-29T06:25:15;18.90;99.90
11812;DHT22;5963;50.184;9.162;2023-07-29T06:27:46;18.90;99.90
11812;DHT22;5963;50.184;9.162;2023-07-29T06:30:17;18.90;99.90
11812;DHT22;5963;50.184;9.162;2023-07-29T06:32:52;18.90;99.90
11812;DHT22;5963;50.184;9.162;2023-07-29T06:35:25;18.90;99.90
11812;DHT22;5963;50.184;9.162;2023-07-29T06:37:56;18.90;99.90
11812;DHT22;5963;50.184;9.162;2023-07-29T06:40:27;18.90;99.90
11812;DHT22;5963;50.184;9.162;2023-07-29T06:43:00;18.90;99.90
11812;DHT22;5963;50.184;9.162;2023-07-29T06:45:30;18.80;99.90
11812;DHT22;5963;50.184;9.162;2023-07-29T06:48:04;18.80;99.90
11812;DHT22;5963;50.184;9.162;2023-07-29T06:50:38;18.80;99.90
11812;DHT22;5963;50.184;9.162;2023-07-29T06:53:09;18.80;99.90
11812;DHT22;5963;50.184;9.162;2023-07-29T06:55:39;18.80;99.90
11812;DHT22;5963;50.184;9.162;2023-07-29T06:58:11;18.80;99.90
11812;DHT22;5963;50.184;9.162;2023-07-29T07:00:41;18.90;99.90
11812;DHT22;5963;50.184;9.162;2023-07-29T07:03:12;19.00;99.90
11812;DHT22;5963;50.184;9.162;2023-07-29T07:05:43;18.90;99.90
11812;DHT22;5963;50.184;9.162;2023-07-29T07:08:12;19.00;99.90
11812;DHT22;5963;50.184;9.162;2023-07-29T07:10:42;18.80;99.90
11812;DHT22;5963;50.184;9.162;2023-07-29T07:13:15;18.60;99.90
11812;DHT22;5963;50.184;9.162;2023-07-29T07:15:48;18.40;99.90
11812;DHT22;5963;50.184;9.162;2023-07-29T07:18:19;18.30;99.90
11812;DHT22;5963;50.184;9.162;2023-07-29T07:20:51;18.20;99.90
11812;DHT22;5963;50.184;9.162;2023-07-29T07:23:22;18.20;99.90
11812;DHT22;5963;50.184;9.162;2023-07-29T07:25:53;18.30;99.90
11812;DHT22;5963;50.184;9.162;2023-07-29T07:28:26;18.40;99.90
11812;DHT22;5963;50.184;9.162;2023-07-29T07:30:57;18.40;99.90
11812;DHT22;5963;50.184;9.162;2023-07-29T07:33:29;18.50;99.90
11812;DHT22;5963;50.184;9.162;2023-07-29T07:35:57;18.60;99.90
11812;DHT22;5963;50.184;9.162;2023-07-29T07:38:27;18.60;99.90
11812;DHT22;5963;50.184;9.162;2023-07-29T07:40:58;18.60;99.90
11812;DHT22;5963;50.184;9.162;2023-07-29T07:43:30;18.70;99.90
11812;DHT22;5963;50.184;9.162;2023-07-29T07:46:03;18.70;99.90
11812;DHT22;5963;50.184;9.162;2023-07-29T07:48:36;18.70;99.90
11812;DHT22;5963;50.184;9.162;2023-07-29T07:51:13;18.80;99.90
11812;DHT22;5963;50.184;9.162;2023-07-29T07:53:44;18.90;99.90
11812;DHT22;5963;50.184;9.162;2023-07-29T07:56:15;19.10;99.90
11812;DHT22;5963;50.184;9.162;2023-07-29T07:58:48;19.10;99.90
11812;DHT22;5963;50.184;9.162;2023-07-29T08:01:18;19.00;99.90
11812;DHT22;5963;50.184;9.162;2023-07-29T08:03:48;19.10;99.90
11812;DHT22;5963;50.184;9.162;2023-07-29T08:06:19;19.10;99.90
11812;DHT22;5963;50.184;9.162;2023-07-29T08:08:49;19.10;99.90
11812;DHT22;5963;50.184;9.162;2023-07-29T08:11:20;19.00;99.90
11812;DHT22;5963;50.184;9.162;2023-07-29T08:13:52;18.90;99.90
11812;DHT22;5963;50.184;9.162;2023-07-29T08:16:22;18.90;99.90
11812;DHT22;5963;50.184;9.162;2023-07-29T08:18:56;19.10;99.90
11812;DHT22;5963;50.184;9.162;2023-07-29T08:21:29;19.10;99.90
11812;DHT22;5963;50.184;9.162;2023-07-29T08:23:58;18.90;99.90
11812;DHT22;5963;50.184;9.162;2023-07-29T08:26:28;19.00;99.90
11812;DHT22;5963;50.184;9.162;2023-07-29T08:29:00;19.10;99.90
11812;DHT22;5963;50.184;9.162;2023-07-29T08:31:31;19.30;99.90
11812;DHT22;5963;50.184;9.162;2023-07-29T08:34:02;19.40;99.90
11812;DHT22;5963;50.184;9.162;2023-07-29T08:36:32;19.30;99.90
11812;DHT22;5963;50.184;9.162;2023-07-29T08:39:05;19.30;99.90
11812;DHT22;5963;50.184;9.162;2023-07-29T08:41:45;19.20;99.90
11812;DHT22;5963;50.184;9.162;2023-07-29T08:44:21;19.30;99.90
11812;DHT22;5963;50.184;9.162;2023-07-29T08:46:54;19.30;99.90
11812;DHT22;5963;50.184;9.162;2023-07-29T08:49:28;19.30;99.90
11812;DHT22;5963;50.184;9.162;2023-07-29T08:51:59;19.50;99.90
11812;DHT22;5963;50.184;9.162;2023-07-29T08:54:29;19.50;99.90
11812;DHT22;5963;50.184;9.162;2023-07-29T08:56:59;19.60;99.90
11812;DHT22;5963;50.184;9.162;2023-07-29T08:59:31;19.90;99.90
11812;DHT22;5963;50.184;9.162;2023-07-29T09:02:03;20.00;99.90
11812;DHT22;5963;50.184;9.162;2023-07-29T09:04:33;20.10;99.90
11812;DHT22;5963;50.184;9.162;2023-07-29T09:07:03;20.50;99.90
11812;DHT22;5963;50.184;9.162;2023-07-29T09:09:33;20.60;99.90
11812;DHT22;5963;50.184;9.162;2023-07-29T09:12:02;20.90;99.90
11812;DHT22;5963;50.184;9.162;2023-07-29T09:14:34;21.00;99.90
11812;DHT22;5963;50.184;9.162;2023-07-29T09:17:06;21.10;99.90
11812;DHT22;5963;50.184;9.162;2023-07-29T09:19:36;21.00;99.90
11812;DHT22;5963;50.184;9.162;2023-07-29T09:22:07;20.90;99.90
11812;DHT22;5963;50.184;9.162;2023-07-29T09:24:49;21.30;99.90
11812;DHT22;5963;50.184;9.162;2023-07-29T09:27:27;21.10;99.90
11812;DHT22;5963;50.184;9.162;2023-07-29T09:30:03;20.90;99.90
11812;DHT22;5963;50.184;9.162;2023-07-29T09:32:33;20.70;99.90
11812;DHT22;5963;50.184;9.162;2023-07-29T09:35:04;21.20;99.90
11812;DHT22;5963;50.184;9.162;2023-07-29T09:37:41;21.60;99.90
11812;DHT22;5963;50.184;9.162;2023-07-29T09:40:17;21.20;99.90
11812;DHT22;5963;50.184;9.162;2023-07-29T09:42:53;21.30;99.90
11812;DHT22;5963;50.184;9.162;2023-07-29T09:45:26;21.50;99.90
11812;DHT22;5963;50.184;9.162;2023-07-29T09:47:58;21.50;99.90
11812;DHT22;5963;50.184;9.162;2023-07-29T09:50:29;21.50;99.90
11812;DHT22;5963;50.184;9.162;2023-07-29T09:53:02;22.10;99.90
11812;DHT22;5963;50.184;9.162;2023-07-29T09:55:34;22.10;99.90
11812;DHT22;5963;50.184;9.162;2023-07-29T09:58:05;22.20;99.90
11812;DHT22;5963;50.184;9.162;2023-07-29T10:00:40;22.30;99.90
11812;DHT22;5963;50.184;9.162;2023-07-29T10:03:10;22.70;99.90
11812;DHT22;5963;50.184;9.162;2023-07-29T10:05:42;22.20;99.90
11812;DHT22;5963;50.184;9.162;2023-07-29T10:08:15;22.50;99.90
11812;DHT22;5963;50.184;9.162;2023-07-29T10:10:45;22.60;99.90
11812;DHT22;5963;50.184;9.162;2023-07-29T10:13:15;22.40;99.90
11812;DHT22;5963;50.184;9.162;2023-07-29T10:15:47;22.20;99.90
11812;DHT22;5963;50.184;9.162;2023-07-29T10:18:18;22.40;99.90
11812;DHT22;5963;50.184;9.162;2023-07-29T10:20:50;22.30;99.90
11812;DHT22;5963;50.184;9.162;2023-07-29T10:23:22;22.40;99.90
11812;DHT22;5963;50.184;9.162;2023-07-29T10:25:57;22.70;99.90
11812;DHT22;5963;50.184;9.162;2023-07-29T10:28:31;22.70;99.90
11812;DHT22;5963;50.184;9.162;2023-07-29T10:31:05;22.80;99.90
11812;DHT22;5963;50.184;9.162;2023-07-29T10:33:36;23.10;99.90
11812;DHT22;5963;50.184;9.162;2023-07-29T10:36:07;23.00;99.90
11812;DHT22;5963;50.184;9.162;2023-07-29T10:38:38;22.50;99.90
11812;DHT22;5963;50.184;9.162;2023-07-29T10:41:11;22.30;99.90
11812;DHT22;5963;50.184;9.162;2023-07-29T10:43:41;22.70;99.90
11812;DHT22;5963;50.184;9.162;2023-07-29T10:46:20;23.10;99.90
11812;DHT22;5963;50.184;9.162;2023-07-29T10:48:55;22.80;99.90
11812;DHT22;5963;50.184;9.162;2023-07-29T10:51:27;22.50;99.90
11812;DHT22;5963;50.184;9.162;2023-07-29T10:53:59;22.60;99.90
11812;DHT22;5963;50.184;9.162;2023-07-29T10:56:31;22.80;99.90
11812;DHT22;5963;50.184;9.162;2023-07-29T10:59:30;23.30;99.90
11812;DHT22;5963;50.184;9.162;2023-07-29T11:02:01;23.40;99.90
11812;DHT22;5963;50.184;9.162;2023-07-29T11:04:32;23.30;99.90
11812;DHT22;5963;50.184;9.162;2023-07-29T11:07:26;23.60;99.90
11812;DHT22;5963;50.184;9.162;2023-07-29T11:10:06;23.60;99.90
11812;DHT22;5963;50.184;9.162;2023-07-29T11:12:41;23.40;99.90
11812;DHT22;5963;50.184;9.162;2023-07-29T11:15:23;23.20;99.90
11812;DHT22;5963;50.184;9.162;2023-07-29T11:17:56;23.40;99.90
11812;DHT22;5963;50.184;9.162;2023-07-29T11:20:25;24.40;99.90
11812;DHT22;5963;50.184;9.162;2023-07-29T11:22:57;24.80;99.90
11812;DHT22;5963;50.184;9.162;2023-07-29T11:25:29;24.80;99.90
11812;DHT22;5963;50.184;9.162;2023-07-29T11:28:00;24.60;99.90
11812;DHT22;5963;50.184;9.162;2023-07-29T11:30:34;24.70;99.90
11812;DHT22;5963;50.184;9.162;2023-07-29T11:33:10;24.20;99.90
11812;DHT22;5963;50.184;9.162;2023-07-29T11:35:40;24.00;99.90
11812;DHT22;5963;50.184;9.162;2023-07-29T11:38:14;24.10;99.90
11812;DHT22;5963;50.184;9.162;2023-07-29T11:40:48;23.70;99.90
11812;DHT22;5963;50.184;9.162;2023-07-29T11:43:22;23.80;99.90
11812;DHT22;5963;50.184;9.162;2023-07-29T11:45:53;23.50;99.90
11812;DHT22;5963;50.184;9.162;2023-07-29T11:48:33;23.40;99.90
11812;DHT22;5963;50.184;9.162;2023-07-29T11:51:03;23.50;99.90
11812;DHT22;5963;50.184;9.162;2023-07-29T11:53:32;23.70;99.90
11812;DHT22;5963;50.184;9.162;2023-07-29T11:56:02;23.80;99.90
11812;DHT22;5963;50.184;9.162;2023-07-29T11:58:33;23.80;99.90
11812;DHT22;5963;50.184;9.162;2023-07-29T12:01:03;23.60;99.90
11812;DHT22;5963;50.184;9.162;2023-07-29T12:03:34;23.40;99.90
11812;DHT22;5963;50.184;9.162;2023-07-29T12:06:05;23.00;99.90
11812;DHT22;5963;50.184;9.162;2023-07-29T12:08:35;22.90;99.90
11812;DHT22;5963;50.184;9.162;2023-07-29T12:11:05;22.80;99.90
11812;DHT22;5963;50.184;9.162;2023-07-29T12:13:41;22.80;99.90
11812;DHT22;5963;50.184;9.162;2023-07-29T12:16:15;22.70;99.90
11812;DHT22;5963;50.184;9.162;2023-07-29T12:18:47;23.00;99.90
11812;DHT22;5963;50.184;9.162;2023-07-29T12:21:20;23.00;99.90
11812;DHT22;5963;50.184;9.162;2023-07-29T12:23:52;22.70;99.90
11812;DHT22;5963;50.184;9.162;2023-07-29T12:26:23;22.90;99.90
11812;DHT22;5963;50.184;9.162;2023-07-29T12:28:57;23.20;99.90
11812;DHT22;5963;50.184;9.162;2023-07-29T12:31:33;23.60;99.90
11812;DHT22;5963;50.184;9.162;2023-07-29T12:34:02;24.40;99.90
11812;DHT22;5963;50.184;9.162;2023-07-29T12:36:44;24.90;99.90
11812;DHT22;5963;50.184;9.162;2023-07-29T12:39:17;25.10;99.90
11812;DHT22;5963;50.184;9.162;2023-07-29T12:41:49;25.50;99.90
11812;DHT22;5963;50.184;9.162;2023-07-29T12:44:22;25.80;99.90
11812;DHT22;5963;50.184;9.162;2023-07-29T12:46:52;25.80;99.90
11812;DHT22;5963;50.184;9.162;2023-07-29T12:49:24;26.10;99.90
11812;DHT22;5963;50.184;9.162;2023-07-29T12:51:54;25.90;99.90
11812;DHT22;5963;50.184;9.162;2023-07-29T12:54:24;26.20;99.90
11812;DHT22;5963;50.184;9.162;2023-07-29T12:56:54;25.90;99.90
11812;DHT22;5963;50.184;9.162;2023-07-29T12:59:25;25.80;99.90
11812;DHT22;5963;50.184;9.162;2023-07-29T13:01:56;25.40;99.90
11812;DHT22;5963;50.184;9.162;2023-07-29T13:04:25;25.50;99.90
11812;DHT22;5963;50.184;9.162;2023-07-29T13:06:55;25.90;99.90
11812;DHT22;5963;50.184;9.162;2023-07-29T13:09:26;26.10;99.90
11812;DHT22;5963;50.184;9.162;2023-07-29T13:11:57;26.40;99.90
11812;DHT22;5963;50.184;9.162;2023-07-29T13:14:27;26.90;99.90
11812;DHT22;5963;50.184;9.162;2023-07-29T13:16:57;27.20;99.90
11812;DHT22;5963;50.184;9.162;2023-07-29T13:19:28;27.50;99.90
11812;DHT22;5963;50.184;9.162;2023-07-29T13:21:58;27.20;99.90
11812;DHT22;5963;50.184;9.162;2023-07-29T13:24:29;26.90;99.90
11812;DHT22;5963;50.184;9.162;2023-07-29T13:27:00;26.40;99.90
11812;DHT22;5963;50.184;9.162;2023-07-29T13:29:31;25.70;99.90
11812;DHT22;5963;50.184;9.162;2023-07-29T13:32:01;25.40;99.90
11812;DHT22;5963;50.184;9.162;2023-07-29T13:34:32;25.20;99.90
11812;DHT22;5963;50.184;9.162;2023-07-29T13:37:03;25.20;99.90
11812;DHT22;5963;50.184;9.162;2023-07-29T13:39:34;24.60;99.90
11812;DHT22;5963;50.184;9.162;2023-07-29T13:42:05;24.90;99.90
11812;DHT22;5963;50.184;9.162;2023-07-29T13:44:35;24.90;99.90
11812;DHT22;5963;50.184;9.162;2023-07-29T13:47:06;25.00;99.90
11812;DHT22;5963;50.184;9.162;2023-07-29T13:49:38;24.90;99.90
11812;DHT22;5963;50.184;9.162;2023-07-29T13:52:09;24.90;99.90
11812;DHT22;5963;50.184;9.162;2023-07-29T13:54:41;25.00;99.90
11812;DHT22;5963;50.184;9.162;2023-07-29T13:57:12;25.10;99.90
11812;DHT22;5963;50.184;9.162;2023-07-29T13:59:42;25.40;99.90
11812;DHT22;5963;50.184;9.162;2023-07-29T14:02:15;25.30;99.90
11812;DHT22;5963;50.184;9.162;2023-07-29T14:04:47;25.90;99.90
11812;DHT22;5963;50.184;9.162;2023-07-29T14:07:18;26.10;99.90
11812;DHT22;5963;50.184;9.162;2023-07-29T14:09:51;26.10;99.90
11812;DHT22;5963;50.184;9.162;2023-07-29T14:12:21;26.10;99.90
11812;DHT22;5963;50.184;9.162;2023-07-29T14:14:51;26.50;99.90
11812;DHT22;5963;50.184;9.162;2023-07-29T14:17:21;26.90;99.90
11812;DHT22;5963;50.184;9.162;2023-07-29T14:19:52;26.90;99.90
11812;DHT22;5963;50.184;9.162;2023-07-29T14:22:21;27.20;99.90
11812;DHT22;5963;50.184;9.162;2023-07-29T14:24:49;27.00;99.90
11812;DHT22;5963;50.184;9.162;2023-07-29T14:27:19;27.30;99.90
11812;DHT22;5963;50.184;9.162;2023-07-29T14:29:49;26.90;99.90
11812;DHT22;5963;50.184;9.162;2023-07-29T14:32:19;26.60;99.90
11812;DHT22;5963;50.184;9.162;2023-07-29T14:34:51;26.60;99.90
11812;DHT22;5963;50.184;9.162;2023-07-29T14:37:21;26.40;99.90
11812;DHT22;5963;50.184;9.162;2023-07-29T14:39:51;26.20;99.90
11812;DHT22;5963;50.184;9.162;2023-07-29T14:42:22;25.90;99.90
11812;DHT22;5963;50.184;9.162;2023-07-29T14:44:52;26.00;99.90
11812;DHT22;5963;50.184;9.162;2023-07-29T14:47:22;26.00;99.90
11812;DHT22;5963;50.184;9.162;2023-07-29T14:49:54;26.20;99.90
11812;DHT22;5963;50.184;9.162;2023-07-29T14:52:24;26.40;99.90
11812;DHT22;5963;50.184;9.162;2023-07-29T14:54:54;26.70;99.90
11812;DHT22;5963;50.184;9.162;2023-07-29T14:57:24;26.60;99.90
11812;DHT22;5963;50.184;9.162;2023-07-29T14:59:54;27.00;99.90
11812;DHT22;5963;50.184;9.162;2023-07-29T15:02:24;27.00;99.90
11812;DHT22;5963;50.184;9.162;2023-07-29T15:04:54;27.10;99.90
11812;DHT22;5963;50.184;9.162;2023-07-29T15:07:24;26.80;99.90
11812;DHT22;5963;50.184;9.162;2023-07-29T15:09:54;26.80;99.90
11812;DHT22;5963;50.184;9.162;2023-07-29T15:12:25;26.80;99.90
11812;DHT22;5963;50.184;9.162;2023-07-29T15:14:55;26.80;99.90
11812;DHT22;5963;50.184;9.162;2023-07-29T15:17:25;27.00;99.90
11812;DHT22;5963;50.184;9.162;2023-07-29T15:19:57;26.60;99.90
11812;DHT22;5963;50.184;9.162;2023-07-29T15:22:27;26.70;99.90
11812;DHT22;5963;50.184;9.162;2023-07-29T15:24:57;26.70;99.90
11812;DHT22;5963;50.184;9.162;2023-07-29T15:27:28;26.20;99.90
11812;DHT22;5963;50.184;9.162;2023-07-29T15:29:58;26.50;99.90
11812;DHT22;5963;50.184;9.162;2023-07-29T15:32:28;26.50;99.90
11812;DHT22;5963;50.184;9.162;2023-07-29T15:34:59;26.40;99.90
11812;DHT22;5963;50.184;9.162;2023-07-29T15:37:29;26.50;99.90
11812;DHT22;5963;50.184;9.162;2023-07-29T15:39:59;26.60;99.90
11812;DHT22;5963;50.184;9.162;2023-07-29T15:42:30;26.60;99.90
11812;DHT22;5963;50.184;9.162;2023-07-29T15:45:00;26.60;99.90
11812;DHT22;5963;50.184;9.162;2023-07-29T15:47:30;26.60;99.90
11812;DHT22;5963;50.184;9.162;2023-07-29T15:50:02;26.40;99.90
11812;DHT22;5963;50.184;9.162;2023-07-29T15:52:33;26.50;99.90
11812;DHT22;5963;50.184;9.162;2023-07-29T15:55:06;26.10;99.90
11812;DHT22;5963;50.184;9.162;2023-07-29T15:57:36;25.90;99.90
11812;DHT22;5963;50.184;9.162;2023-07-29T16:00:08;25.80;99.90
11812;DHT22;5963;50.184;9.162;2023-07-29T16:02:38;25.60;99.90
11812;DHT22;5963;50.184;9.162;2023-07-29T16:05:10;25.70;99.90
11812;DHT22;5963;50.184;9.162;2023-07-29T16:07:40;25.40;99.90
11812;DHT22;5963;50.184;9.162;2023-07-29T16:10:11;25.50;99.90
11812;DHT22;5963;50.184;9.162;2023-07-29T16:12:41;25.40;99.90